Time;durP1;ratioP1;P1;durP2;ratioP2;P2;SDS_P1;SDS_P2;PMS_P1;PMS_P2;Temp;Humidity;BMP_temperature;BMP_pressure;BME280_temperature;BME280_humidity;BME280_pressure;Samples;Min_cycle;Max_cycle;Signal;HPM_P1;HPM_P2
2022/03/28 00:00:18;;;;;;;2.10;1.90;;;2.20;1.40;;;3.29;100.00;96278.68;647550;212;42193;-76
2022/03/28 00:03:01;;;;;;;2.10;1.98;;;2.30;1.40;;;3.40;100.00;96274.11;648256;216;31588;-76
2022/03/28 00:05:43;;;;;;;1.90;1.70;;;2.40;1.40;;;3.34;100.00;96270.64;647909;212;31575;-77
2022/03/28 00:08:25;;;;;;;3.37;2.80;;;2.30;1.40;;;3.36;100.00;96274.14;636165;214;31762;-76
2022/03/28 00:11:10;;;;;;;4.35;1.80;;;2.30;1.40;;;3.39;100.00;96267.92;648006;216;31619;-76
2022/03/28 00:13:56;;;;;;;4.03;2.22;;;2.50;1.40;;;3.52;100.00;96266.62;646879;216;31576;-76
2022/03/28 00:16:37;;;;;;;2.25;2.05;;;2.80;1.40;;;3.56;100.00;96266.50;647506;216;31584;-77
2022/03/28 00:19:19;;;;;;;2.40;2.08;;;2.70;1.40;;;3.50;100.00;96265.23;647957;216;31563;-77
2022/03/28 00:22:01;;;;;;;2.47;2.28;;;2.50;1.40;;;3.34;100.00;96266.30;646234;216;31564;-77
2022/03/28 00:24:46;;;;;;;5.80;1.95;;;2.30;1.40;;;3.22;100.00;96260.92;648521;212;31608;-77
2022/03/28 00:27:27;;;;;;;4.30;2.70;;;2.20;1.40;;;3.20;100.00;96258.52;619997;222;31915;-76
2022/03/28 00:30:10;;;;;;;2.40;1.65;;;2.20;1.40;;;3.23;100.00;96257.30;646559;212;31779;-77
2022/03/28 00:32:52;;;;;;;1.80;1.70;;;2.10;1.40;;;3.17;100.00;96255.09;647423;212;31570;-76
2022/03/28 00:35:51;;;;;;;2.50;2.30;;;2.00;1.40;;;2.92;100.00;96252.91;647457;216;31636;-77
2022/03/28 00:38:33;;;;;;;6.60;1.85;;;1.80;1.40;;;2.87;100.00;96251.58;646623;216;31646;-77
2022/03/28 00:41:18;;;;;;;2.30;1.90;;;1.70;1.40;;;2.70;100.00;96251.16;647259;216;31577;-77
2022/03/28 00:44:00;;;;;;;3.92;2.12;;;1.60;1.40;;;2.74;100.00;96247.64;647395;216;31605;-77
2022/03/28 00:46:45;;;;;;;2.20;1.70;;;1.80;1.40;;;2.74;100.00;96253.20;648578;212;42166;-77
2022/03/28 00:49:27;;;;;;;2.50;2.17;;;1.80;1.40;;;2.89;100.00;96245.52;620263;226;32050;-77
2022/03/28 00:52:14;;;;;;;3.00;1.40;;;2.10;1.40;;;2.93;100.00;96241.38;647509;212;31565;-78
2022/03/28 00:55:03;;;;;;;3.80;2.40;;;2.30;1.40;;;3.00;100.00;96240.04;646530;216;42199;-77
2022/03/28 00:57:44;;;;;;;4.10;2.20;;;2.40;1.40;;;3.01;100.00;96233.63;617168;224;32433;-77
2022/03/28 01:00:26;;;;;;;2.85;1.90;;;2.30;1.40;;;2.95;100.00;96232.62;620123;222;32063;-76
2022/03/28 01:03:09;;;;;;;1.70;1.50;;;2.20;1.40;;;3.00;100.00;96230.34;648845;216;31572;-77
2022/03/28 01:05:52;;;;;;;3.35;2.42;;;2.20;1.40;;;2.98;100.00;96228.97;646991;216;31508;-77
2022/03/28 01:08:34;;;;;;;4.03;1.37;;;2.20;1.40;;;2.97;100.00;96222.86;611716;226;32684;-78
2022/03/28 01:11:17;;;;;;;2.45;1.40;;;2.20;1.40;;;2.96;100.00;96224.51;648603;212;31659;-76
2022/03/28 01:14:01;;;;;;;2.80;1.90;;;2.10;1.40;;;2.80;100.00;96224.45;619661;226;31839;-76
2022/03/28 01:19:31;;;;;;;1.75;1.65;;;2.00;1.40;;;2.70;100.00;96219.55;620164;222;32176;-77
2022/03/28 01:22:13;;;;;;;2.45;1.60;;;2.00;1.40;;;2.83;100.00;96218.14;619087;222;32038;-76
2022/03/28 01:27:36;;;;;;;2.90;2.03;;;2.30;1.40;;;3.01;100.00;96211.13;620029;222;31891;-76
2022/03/28 01:30:17;;;;;;;2.20;1.90;;;2.50;1.40;;;3.15;100.00;96211.67;647144;216;42893;-77
2022/03/28 01:35:55;;;;;;;4.68;2.70;;;2.60;1.40;;;3.32;100.00;96209.83;648067;216;31584;-76
2022/03/28 01:38:37;;;;;;;1.80;1.70;;;2.70;1.40;;;3.38;100.00;96202.95;649578;212;31582;-76
2022/03/28 01:41:19;;;;;;;3.50;2.67;;;2.80;1.40;;;3.51;100.00;96203.38;646969;216;42471;-77
2022/03/28 01:44:01;;;;;;;2.70;1.70;;;3.00;1.40;;;3.65;100.00;96202.42;635436;221;31721;-77
2022/03/28 01:46:44;;;;;;;2.35;2.17;;;3.10;1.40;;;3.75;100.00;96201.88;648924;216;42398;-76
2022/03/28 01:49:26;;;;;;;2.00;1.85;;;3.10;1.40;;;3.84;100.00;96198.53;647204;216;31593;-76
2022/03/28 01:52:08;;;;;;;2.45;2.25;;;3.20;1.40;;;3.85;100.00;96193.94;648413;216;42592;-77
2022/03/28 01:54:49;;;;;;;3.60;2.60;;;3.20;1.40;;;3.91;100.00;96195.67;647152;212;31960;-77
2022/03/28 01:57:32;;;;;;;3.17;2.03;;;3.20;1.40;;;3.86;100.00;96196.75;620800;222;32230;-76
2022/03/28 02:00:17;;;;;;;1.97;1.80;;;3.10;1.40;;;3.82;100.00;96191.91;648209;216;31568;-76
2022/03/28 02:03:00;;;;;;;3.85;1.70;;;3.10;1.40;;;3.80;100.00;96188.50;620755;222;42873;-76
2022/03/28 02:05:44;;;;;;;3.70;2.00;;;3.00;1.40;;;3.83;100.00;96190.09;618794;226;31970;-77
2022/03/28 02:08:26;;;;;;;1.55;1.45;;;3.00;1.40;;;3.82;100.00;96188.75;635201;216;31734;-77
2022/03/28 02:11:08;;;;;;;4.30;2.10;;;3.10;1.40;;;3.88;100.00;96186.80;647333;212;31760;-76
2022/03/28 02:13:50;;;;;;;3.20;1.77;;;3.00;1.40;;;3.69;100.00;96186.89;647693;212;31544;-77
2022/03/28 02:16:33;;;;;;;3.75;1.62;;;2.90;1.40;;;3.67;100.00;96195.55;619195;222;31935;-77
2022/03/28 02:19:20;;;;;;;4.18;2.20;;;2.90;1.40;;;3.57;100.00;96189.69;649535;212;31945;-79
2022/03/28 02:22:01;;;;;;;4.40;2.12;;;2.70;1.40;;;3.48;100.00;96188.17;619408;226;31867;-76
2022/03/28 02:27:17;;;;;;;4.50;2.83;;;2.40;1.40;;;3.47;100.00;96182.79;646968;216;42194;-77
2022/03/28 02:30:00;;;;;;;2.22;1.52;;;2.60;1.40;;;3.29;100.00;96181.43;648863;212;35429;-76
2022/03/28 02:32:42;;;;;;;5.20;2.53;;;2.30;1.40;;;3.06;100.00;96181.24;647471;216;31755;-76
2022/03/28 02:35:52;;;;;;;4.20;1.70;;;2.00;1.40;;;2.90;100.00;96183.36;647810;216;32200;-75
2022/03/28 02:38:34;;;;;;;3.30;1.90;;;1.80;1.40;;;2.74;100.00;96181.09;647768;216;31944;-76
2022/03/28 02:41:17;;;;;;;2.72;1.50;;;1.50;1.40;;;2.64;100.00;96180.94;619014;226;31881;-76
2022/03/28 02:43:59;;;;;;;2.80;1.40;;;1.40;1.40;;;2.40;100.00;96181.72;646664;216;31550;-77
2022/03/28 02:46:41;;;;;;;2.40;1.10;;;1.10;1.40;;;2.22;100.00;96184.45;647844;212;31594;-77
2022/03/28 02:49:23;;;;;;;3.33;1.90;;;0.90;1.40;;;1.85;100.00;96180.59;646267;212;32157;-76
2022/03/28 02:52:07;;;;;;;3.80;2.27;;;0.60;1.40;;;1.60;100.00;96182.01;646895;216;42198;-77
2022/03/28 02:54:49;;;;;;;1.67;1.25;;;0.40;1.40;;;1.53;100.00;96183.92;647007;216;31594;-77
2022/03/28 02:57:34;;;;;;;5.32;2.03;;;0.30;1.40;;;1.43;100.00;96183.97;646380;216;42181;-75
2022/03/28 03:00:17;;;;;;;2.30;1.60;;;0.30;1.40;;;1.43;100.00;96177.50;647629;216;42173;-76
2022/03/28 03:02:59;;;;;;;2.50;1.70;;;0.40;1.40;;;1.42;100.00;96175.17;647465;212;42175;-77
2022/03/28 03:05:43;;;;;;;2.00;1.80;;;0.40;1.40;;;1.40;100.00;96178.50;632440;222;32105;-75
2022/03/28 03:08:25;;;;;;;2.00;1.70;;;0.50;1.40;;;1.48;100.00;96174.14;634093;219;31692;-76
2022/03/28 03:11:07;;;;;;;3.10;1.90;;;0.70;1.40;;;1.66;100.00;96170.57;647540;212;31589;-77
2022/03/28 03:13:50;;;;;;;2.22;1.92;;;0.90;1.40;;;1.62;100.00;96169.40;632252;222;32084;-77
2022/03/28 03:16:35;;;;;;;1.40;1.30;;;1.00;1.40;;;1.77;100.00;96168.19;620011;222;31837;-91
2022/03/28 03:19:23;;;;;;;3.90;1.62;;;1.20;1.40;;;1.86;100.00;96168.80;620256;226;32029;-76
2022/03/28 03:22:05;;;;;;;3.67;2.50;;;1.10;1.40;;;1.93;100.00;96171.46;646508;212;42081;-77
2022/03/28 03:24:48;;;;;;;2.20;2.00;;;1.20;1.40;;;1.93;100.00;96167.79;647731;216;42199;-76
2022/03/28 03:27:30;;;;;;;1.40;1.30;;;1.30;1.40;;;1.93;100.00;96168.27;643288;214;31632;-76
2022/03/28 03:30:13;;;;;;;5.35;1.95;;;1.30;1.40;;;1.92;100.00;96173.42;647559;216;42631;-77
2022/03/28 03:32:57;;;;;;;2.67;1.60;;;1.30;1.40;;;2.12;100.00;96171.60;647407;212;42728;-77
2022/03/28 03:35:51;;;;;;;9.35;3.35;;;1.50;1.40;;;2.20;100.00;96169.64;646657;212;31609;-76
2022/03/28 03:38:36;;;;;;;1.87;1.77;;;1.60;1.40;;;2.28;100.00;96168.47;646500;212;32153;-77
2022/03/28 03:41:17;;;;;;;3.08;1.17;;;1.80;1.40;;;2.42;100.00;96170.23;647625;216;31600;-77
2022/03/28 03:43:59;;;;;;;3.10;1.80;;;1.90;1.40;;;2.38;100.00;96167.59;648258;216;31567;-76
2022/03/28 03:46:41;;;;;;;2.45;2.22;;;1.80;1.40;;;2.43;100.00;96166.62;619051;226;31875;-77
2022/03/28 03:49:22;;;;;;;3.15;2.55;;;1.90;1.40;;;2.49;100.00;96165.72;643536;215;31620;-77
2022/03/28 03:52:06;;;;;;;1.95;1.75;;;1.90;1.40;;;2.49;100.00;96158.81;621219;226;31944;-77
2022/03/28 03:54:48;;;;;;;4.80;1.87;;;1.80;1.40;;;2.49;100.00;96160.69;647711;212;31700;-78
2022/03/28 03:57:32;;;;;;;4.10;3.30;;;1.80;1.40;;;2.49;100.00;96159.78;648051;212;42197;-77
2022/03/28 04:00:14;;;;;;;2.65;2.45;;;1.80;1.40;;;2.57;100.00;96162.05;619741;222;33347;-76
2022/03/28 04:02:57;;;;;;;5.37;3.80;;;1.90;1.40;;;2.48;100.00;96163.66;642953;215;31614;-77
2022/03/28 04:05:39;;;;;;;3.90;2.17;;;1.70;1.40;;;2.14;100.00;96166.25;647362;216;31570;-78
2022/03/28 04:08:22;;;;;;;3.17;1.77;;;1.10;1.40;;;2.12;100.00;96165.83;610149;226;32132;-77
2022/03/28 04:11:04;;;;;;;4.60;2.90;;;1.20;1.40;;;2.14;100.00;96164.91;648123;216;31541;-77
2022/03/28 04:13:45;;;;;;;3.35;2.03;;;1.40;1.40;;;2.29;100.00;96169.06;647796;212;42191;-77
2022/03/28 04:16:28;;;;;;;4.20;2.45;;;1.60;1.40;;;2.44;100.00;96167.44;647006;212;31632;-77
2022/03/28 04:19:11;;;;;;;2.60;2.12;;;1.90;1.40;;;2.61;100.00;96164.70;648151;212;31554;-76
2022/03/28 04:21:54;;;;;;;6.12;1.60;;;2.10;1.40;;;2.72;100.00;96158.34;647685;216;42772;-77
2022/03/28 04:24:36;;;;;;;2.47;1.50;;;2.20;1.40;;;2.72;100.00;96162.74;648827;212;31771;-77
2022/03/28 04:27:18;;;;;;;2.80;1.70;;;2.10;1.40;;;2.76;100.00;96156.59;619687;226;42560;-76
2022/03/28 04:30:00;;;;;;;3.20;2.00;;;2.10;1.40;;;2.77;100.00;96158.13;622259;226;31892;-77
2022/03/28 04:32:41;;;;;;;2.40;1.70;;;2.20;1.40;;;2.78;100.00;96158.79;619986;226;31934;-77
2022/03/28 04:35:51;;;;;;;1.60;1.48;;;2.30;1.40;;;2.78;100.00;96156.38;620914;222;32262;-77
2022/03/28 04:38:36;;;;;;;3.90;1.83;;;2.10;1.40;;;2.74;100.00;96159.84;647069;212;32052;-77
2022/03/28 04:41:19;;;;;;;3.70;2.00;;;2.10;1.40;;;2.72;100.00;96159.53;620213;226;32209;-77
2022/03/28 04:44:05;;;;;;;11.88;2.35;;;2.10;1.40;;;2.73;100.00;96157.23;647500;212;31629;-77
2022/03/28 04:46:46;;;;;;;4.65;2.25;;;2.00;1.40;;;2.62;100.00;96156.16;620079;222;36862;-77
2022/03/28 04:49:29;;;;;;;3.10;2.83;;;1.90;1.40;;;2.57;100.00;96162.67;620627;226;32145;-77
2022/03/28 04:52:20;;;;;;;2.20;2.00;;;1.80;1.40;;;2.58;100.00;96155.05;646768;216;31897;-79
2022/03/28 04:55:08;;;;;;;4.10;2.03;;;1.90;1.40;;;2.61;100.00;96154.77;648701;212;31544;-77
2022/03/28 04:57:53;;;;;;;2.25;1.98;;;1.80;1.40;;;2.51;100.00;96152.91;647533;216;32101;-77
2022/03/28 05:00:34;;;;;;;1.50;1.40;;;1.80;1.40;;;2.47;100.00;96152.57;647988;216;31678;-77
2022/03/28 05:03:16;;;;;;;3.22;1.90;;;1.80;1.40;;;2.46;100.00;96153.45;646452;216;31842;-77
2022/03/28 05:05:59;;;;;;;3.10;1.57;;;1.80;1.40;;;2.52;100.00;96151.28;647803;216;42188;-76
2022/03/28 05:08:40;;;;;;;1.80;1.30;;;1.80;1.40;;;2.55;100.00;96154.45;648505;212;31578;-76
2022/03/28 05:11:24;;;;;;;3.40;1.93;;;1.80;1.40;;;2.62;100.00;96156.48;620253;225;32521;-77
2022/03/28 05:14:07;;;;;;;3.42;1.85;;;2.00;1.40;;;2.65;100.00;96148.62;648026;216;31557;-77
2022/03/28 05:16:49;;;;;;;3.67;1.62;;;1.90;1.40;;;2.61;100.00;96158.98;621731;226;32018;-77
2022/03/28 05:19:31;;;;;;;4.97;2.03;;;1.90;1.40;;;2.56;100.00;96150.56;646826;216;31543;-76
2022/03/28 05:22:12;;;;;;;3.40;2.60;;;1.80;1.40;;;2.57;100.00;96150.58;619457;222;32034;-77
2022/03/28 05:25:08;;;;;;;3.08;1.60;;;1.80;1.40;;;2.62;100.00;96149.48;647151;212;42585;-78
2022/03/28 05:36:14;;;;;;;3.00;1.87;;;1.50;1.40;;;2.35;100.00;96146.03;622541;225;32002;-77
2022/03/28 05:39:07;;;;;;;8.73;2.62;;;1.30;1.40;;;2.38;100.00;96142.88;645458;216;31489;-78
2022/03/28 05:41:49;;;;;;;2.50;2.20;;;1.40;1.40;;;2.47;100.00;96141.02;647219;216;31541;-78
2022/03/28 05:55:07;;;;;;;3.15;1.85;;;1.90;1.40;;;2.87;100.00;96149.23;648298;212;31577;-77
2022/03/28 05:57:51;;;;;;;8.93;2.75;;;2.00;1.40;;;2.91;100.00;96149.69;647981;212;31573;-77
2022/03/28 06:00:34;;;;;;;3.25;2.35;;;2.00;1.40;;;3.17;100.00;96148.78;647286;216;31563;-77
2022/03/28 06:03:25;;;;;;;2.60;2.10;;;2.60;1.40;;;3.39;100.00;96151.67;647928;212;31554;-76
2022/03/28 06:06:13;;;;;;;3.53;2.78;;;2.80;1.40;;;3.59;100.00;96150.16;619340;226;32010;-77
2022/03/28 06:09:01;;;;;;;8.68;3.17;;;3.00;1.40;;;3.74;100.00;96147.69;646694;212;31609;-76
2022/03/28 06:11:43;;;;;;;9.13;3.10;;;3.10;1.40;;;3.93;100.00;96153.86;649203;216;31556;-77
2022/03/28 06:14:25;;;;;;;3.70;2.80;;;3.20;1.40;;;4.08;100.00;96151.94;646512;212;31581;-79
2022/03/28 06:17:07;;;;;;;4.53;3.95;;;3.40;1.40;;;4.28;100.00;96148.64;621146;226;32095;-78
2022/03/28 06:19:49;;;;;;;3.75;2.70;;;3.60;1.40;;;4.54;100.00;96147.02;648181;216;31586;-79
2022/03/28 06:22:41;;;;;;;7.07;4.70;;;3.80;1.40;;;4.70;100.00;96150.80;649105;216;31533;-79
2022/03/28 06:25:23;;;;;;;7.80;4.00;;;4.10;1.40;;;4.88;100.00;96148.72;648672;212;31850;-79
2022/03/28 06:28:05;;;;;;;5.72;4.10;;;4.30;1.40;;;5.05;100.00;96151.19;648919;212;31742;-78
2022/03/28 06:30:58;;;;;;;6.40;3.90;;;4.40;1.40;;;5.24;100.00;96152.55;620589;222;31893;-79
2022/03/28 06:35:57;;;;;;;6.32;4.20;;;4.90;1.40;;;5.71;100.00;96145.41;647862;216;31695;-78
2022/03/28 06:38:39;;;;;;;4.65;2.75;;;5.20;1.40;;;5.88;100.00;96149.77;649272;212;31574;-78
2022/03/28 06:41:21;;;;;;;5.07;3.20;;;5.20;1.40;;;5.98;100.00;96147.37;619419;225;32068;-78
2022/03/28 06:44:05;;;;;;;3.95;3.10;;;5.30;1.40;;;6.15;100.00;96151.71;619697;225;31958;-78
2022/03/28 06:46:47;;;;;;;5.10;3.70;;;5.50;1.40;;;6.35;100.00;96151.00;620369;222;31888;-77
2022/03/28 06:49:34;;;;;;;4.55;2.90;;;5.70;1.40;;;6.51;100.00;96146.92;647265;216;31576;-77
2022/03/28 06:52:15;;;;;;;6.25;3.72;;;5.80;1.40;;;6.71;100.00;96144.30;647291;216;31593;-79
2022/03/28 06:54:57;;;;;;;3.42;2.67;;;6.00;1.40;;;6.97;100.00;96143.19;620352;222;32093;-78
2022/03/28 06:57:42;;;;;;;5.90;3.90;;;6.30;1.40;;;7.21;100.00;96139.94;647609;212;32116;-78
2022/03/28 07:00:24;;;;;;;4.87;3.30;;;6.50;1.40;;;7.41;100.00;96138.02;647637;212;32701;-77
2022/03/28 07:03:08;;;;;;;3.60;3.30;;;6.80;1.40;;;7.65;100.00;96138.26;646534;216;31598;-78
2022/03/28 07:05:50;;;;;;;3.25;2.60;;;7.00;1.40;;;7.84;100.00;96135.38;619390;222;31933;-78
2022/03/28 07:08:32;;;;;;;4.70;3.50;;;7.10;1.40;;;7.98;100.00;96129.53;619915;222;42683;-78
2022/03/28 07:11:17;;;;;;;4.12;3.58;;;7.30;1.40;;;8.25;100.00;96132.64;647876;216;31980;-77
2022/03/28 07:13:58;;;;;;;3.87;2.60;;;7.50;1.40;;;8.45;100.00;96132.49;617158;224;31899;-77
2022/03/28 07:16:40;;;;;;;3.40;3.10;;;7.70;1.40;;;8.68;97.94;96131.48;648313;212;31572;-79
2022/03/28 07:19:22;;;;;;;5.15;3.50;;;8.00;1.40;;;8.89;96.04;96125.64;646242;212;31717;-77
2022/03/28 07:22:05;;;;;;;5.50;3.50;;;8.20;1.40;;;9.23;92.85;96122.60;645538;216;32130;-78
2022/03/28 07:24:47;;;;;;;6.50;3.40;;;8.60;1.40;;;9.49;89.50;96114.87;647253;216;31658;-77
2022/03/28 07:27:31;;;;;;;6.40;3.57;;;8.90;1.40;;;9.70;87.02;96115.67;648019;216;31567;-78
2022/03/28 07:30:14;;;;;;;5.03;2.80;;;9.00;1.40;;;9.93;85.25;96116.91;646245;216;31595;-78
2022/03/28 07:32:59;;;;;;;5.77;4.20;;;9.30;1.40;;;10.20;82.22;96114.42;620317;222;32467;-78
2022/03/28 07:35:52;;;;;;;5.75;3.10;;;9.60;1.40;;;10.40;80.62;96117.21;619349;226;32581;-78
2022/03/28 07:38:34;;;;;;;4.20;3.00;;;9.80;1.40;;;10.70;81.23;96114.12;619980;226;31929;-78
2022/03/28 07:41:16;;;;;;;7.40;3.37;;;10.00;1.40;;;10.88;79.70;96115.13;651685;212;31561;-78
2022/03/28 07:43:59;;;;;;;4.27;2.80;;;10.20;1.40;;;11.12;79.82;96112.89;620201;222;31877;-77
2022/03/28 07:46:41;;;;;;;5.45;3.17;;;10.40;1.40;;;11.45;76.64;96111.25;648553;212;31548;-79
2022/03/28 07:49:24;;;;;;;4.90;3.37;;;10.80;1.40;;;11.62;72.18;96112.28;632544;222;31749;-78
2022/03/28 07:52:08;;;;;;;4.67;3.83;;;10.90;1.40;;;11.69;70.83;96112.06;646963;216;31598;-79
2022/03/28 07:54:48;;;;;;;5.73;4.30;;;11.00;1.40;;;11.95;69.94;96112.05;648041;216;31704;-78
2022/03/28 07:57:36;;;;;;;8.82;4.35;;;11.20;1.40;;;12.12;68.49;96107.92;643158;218;31641;-79
2022/03/28 08:00:24;;;;;;;4.00;3.10;;;11.40;1.40;;;12.06;67.03;96108.34;619971;222;31908;-78
2022/03/28 08:03:09;;;;;;;7.20;4.50;;;11.20;1.40;;;12.10;68.03;96106.22;620930;226;32009;-78
2022/03/28 08:05:53;;;;;;;7.15;3.75;;;11.40;1.40;;;12.31;68.37;96109.10;620258;222;32437;-78
2022/03/28 08:08:37;;;;;;;5.62;4.00;;;11.50;1.40;;;12.54;66.98;96103.64;631171;219;31727;-78
2022/03/28 08:11:18;;;;;;;5.97;4.30;;;11.70;1.40;;;12.67;67.96;96105.55;618417;226;32070;-77
2022/03/28 08:14:05;;;;;;;5.30;3.53;;;11.80;1.40;;;12.96;67.97;96103.68;643862;217;31955;-79
2022/03/28 08:16:50;;;;;;;6.00;3.40;;;12.10;1.40;;;13.16;64.43;96098.61;618466;222;32017;-79
2022/03/28 08:19:34;;;;;;;6.50;4.90;;;12.40;1.40;;;13.09;62.98;96100.08;646971;216;31620;-76
2022/03/28 08:22:17;;;;;;;4.75;3.30;;;12.20;1.40;;;13.37;62.53;96097.79;619183;226;31905;-78
2022/03/28 08:24:59;;;;;;;7.43;3.80;;;12.50;1.40;;;13.50;60.77;96093.54;646563;216;31630;-76
2022/03/28 08:27:42;;;;;;;7.10;3.60;;;12.70;1.40;;;13.70;60.73;96086.28;619989;222;31912;-77
2022/03/28 08:30:25;;;;;;;5.80;4.32;;;12.90;1.40;;;13.84;59.56;96083.91;647390;216;32104;-78
2022/03/28 08:35:51;;;;;;;7.45;4.35;;;13.20;1.40;;;14.01;57.09;96083.13;646350;216;31666;-77
2022/03/28 08:38:35;;;;;;;5.93;4.10;;;13.30;1.40;;;14.20;55.58;96082.45;646993;216;31588;-77
2022/03/28 08:41:18;;;;;;;8.17;4.80;;;13.50;1.40;;;14.38;54.28;96080.28;645477;212;31914;-78
2022/03/28 08:43:57;;;;;;;5.47;4.23;;;13.70;1.40;;;14.61;53.46;96078.78;618965;225;32029;-77
2022/03/28 08:46:39;;;;;;;7.05;4.47;;;13.90;1.40;;;14.84;53.00;96078.83;646946;212;42204;-77
2022/03/28 08:49:21;;;;;;;6.00;4.43;;;14.10;1.40;;;14.69;51.61;96074.44;646834;216;32536;-77
2022/03/28 08:52:03;;;;;;;6.95;3.95;;;14.00;1.40;;;14.87;51.55;96075.25;619334;226;31960;-77
2022/03/28 08:54:44;;;;;;;5.80;3.87;;;14.30;1.40;;;15.23;50.38;96072.02;647483;212;31591;-76
2022/03/28 08:57:26;;;;;;;5.18;3.87;;;14.70;1.40;;;15.40;49.84;96074.37;646188;216;33264;-78
2022/03/28 09:00:09;;;;;;;5.43;3.62;;;14.90;99.90;;;15.66;48.44;96072.59;647248;216;31595;-76
2022/03/28 09:02:50;;;;;;;5.80;4.37;;;15.10;1.40;;;16.20;48.48;96070.92;647212;212;31546;-77
2022/03/28 09:05:35;;;;;;;6.97;3.70;;;15.80;1.40;;;17.46;44.80;96055.20;619645;226;38443;-78
2022/03/28 09:08:23;;;;;;;8.73;4.45;;;18.50;1.40;;;18.91;41.14;96056.86;610372;226;32598;-77
2022/03/28 09:11:21;;;;;;;9.05;4.25;;;20.00;1.40;;;19.64;39.07;96049.15;619872;225;31864;-78
2022/03/28 09:14:03;;;;;;;7.22;4.80;;;20.50;1.40;;;20.54;38.19;96044.97;646705;216;31568;-77
2022/03/28 09:16:46;;;;;;;8.23;4.70;;;20.50;99.90;;;21.11;36.32;96043.07;647436;216;31514;-78
2022/03/28 09:19:28;;;;;;;8.00;5.72;;;21.00;99.90;;;21.22;34.78;96038.59;617045;226;31908;-77
2022/03/28 09:22:10;;;;;;;6.32;5.05;;;21.30;99.90;;;20.69;35.96;96040.81;646461;212;31611;-77
2022/03/28 09:24:51;;;;;;;8.05;5.55;;;20.40;99.90;;;21.31;33.94;96033.98;646371;216;31670;-77
2022/03/28 09:27:33;;;;;;;8.65;5.37;;;21.50;99.90;;;21.83;34.78;96027.23;619484;222;32262;-76
2022/03/28 09:30:15;;;;;;;6.80;5.15;;;21.80;99.90;;;22.88;33.83;96029.60;648245;216;42168;-76
2022/03/28 09:32:57;;;;;;;6.60;5.45;;;22.40;99.90;;;23.28;33.03;96026.24;647051;216;31588;-78
2022/03/28 09:35:51;;;;;;;5.90;5.10;;;21.70;99.90;;;24.27;31.39;96021.39;648152;216;31568;-77
2022/03/28 09:38:33;;;;;;;7.25;5.40;;;22.20;99.90;;;23.63;30.74;96017.41;646068;212;31555;-77
2022/03/28 09:41:15;;;;;;;8.85;6.20;;;22.40;99.90;;;24.11;30.35;96013.20;619354;225;42657;-77
2022/03/28 09:43:57;;;;;;;11.60;5.80;;;22.40;99.90;;;24.64;29.07;96013.70;645857;216;31629;-76
2022/03/28 09:46:39;;;;;;;9.85;6.68;;;23.20;99.90;;;24.64;30.20;96009.78;619512;226;31869;-76
2022/03/28 09:49:25;;;;;;;7.45;5.43;;;23.10;99.90;;;24.29;29.67;96008.37;619583;226;31867;-76
2022/03/28 09:52:11;;;;;;;7.40;5.03;;;22.60;99.90;;;24.89;29.66;96007.91;619683;226;32251;-76
2022/03/28 09:54:54;;;;;;;10.37;6.00;;;22.90;99.90;;;24.22;30.06;96003.73;642517;214;31614;-77
2022/03/28 09:57:35;;;;;;;7.72;5.90;;;23.10;99.90;;;24.23;30.80;95998.11;647129;216;31893;-77
2022/03/28 10:00:19;;;;;;;7.47;5.70;;;23.00;99.90;;;26.71;27.84;95987.11;618532;226;31877;-77
2022/03/28 10:03:02;;;;;;;8.05;5.90;;;25.10;99.90;;;24.75;29.01;95995.47;620191;226;32110;-77
2022/03/28 10:05:44;;;;;;;8.70;5.93;;;22.40;99.90;;;26.51;29.16;95979.97;646732;216;31613;-77
2022/03/28 10:08:28;;;;;;;10.45;6.20;;;24.60;99.90;;;26.10;27.75;95983.22;635565;212;32289;-76
2022/03/28 10:11:10;;;;;;;8.27;5.87;;;24.40;99.90;;;26.38;28.81;95978.86;647966;216;31571;-77
2022/03/28 10:13:52;;;;;;;7.97;5.62;;;24.20;99.90;;;26.45;27.71;95973.42;618843;226;32026;-78
2022/03/28 10:16:33;;;;;;;8.75;5.87;;;23.10;99.90;;;26.13;27.46;95972.56;647138;212;31560;-77
2022/03/28 10:19:16;;;;;;;9.20;6.05;;;22.80;99.90;;;28.31;26.06;95961.73;647598;216;31602;-76
2022/03/28 10:21:58;;;;;;;7.10;6.40;;;24.80;1.40;;;27.83;26.25;95959.45;647749;212;42375;-77
2022/03/28 10:24:39;;;;;;;7.62;6.40;;;24.20;99.90;;;28.74;25.72;95950.94;647940;213;31567;-77
2022/03/28 10:27:21;;;;;;;7.60;6.57;;;25.40;99.90;;;30.10;23.86;95944.59;620657;226;32231;-77
2022/03/28 10:30:10;;;;;;;12.20;6.72;;;26.80;99.90;;;29.28;25.27;95940.44;619292;225;32107;-76
2022/03/28 10:35:59;;;;;;;8.05;5.93;;;26.90;99.90;;;30.78;23.53;95924.74;647612;216;31865;-77
2022/03/28 10:38:41;;;;;;;10.27;6.30;;;26.30;99.90;;;30.54;23.53;95922.83;647983;212;31626;-78
2022/03/28 10:41:23;;;;;;;6.60;5.62;;;26.90;99.90;;;30.22;23.54;95925.07;646948;216;31722;-77
2022/03/28 10:44:08;;;;;;;8.95;6.62;;;27.50;99.90;;;28.59;24.33;95925.70;647485;212;31726;-78
2022/03/28 10:46:50;;;;;;;9.00;6.20;;;26.10;99.90;;;30.33;23.65;95912.89;645790;212;31574;-77
2022/03/28 10:49:31;;;;;;;7.72;6.30;;;26.40;99.90;;;30.92;22.92;95905.81;647402;216;31597;-77
2022/03/28 10:52:16;;;;;;;8.52;6.37;;;26.90;99.90;;;29.88;23.46;95908.41;647521;212;31858;-77
2022/03/28 10:54:58;;;;;;;8.93;6.10;;;26.60;99.90;;;31.17;22.57;95899.20;647609;212;31627;-77
2022/03/28 10:57:39;;;;;;;9.03;6.40;;;27.10;99.90;;;30.64;22.47;95894.23;615886;226;32016;-77
2022/03/28 11:00:24;;;;;;;9.23;6.28;;;27.20;99.90;;;32.65;22.69;95890.41;648128;216;31549;-78
2022/03/28 11:03:06;;;;;;;8.93;6.10;;;27.70;99.90;;;31.41;21.40;95886.85;647353;212;32330;-78
2022/03/28 11:05:55;;;;;;;9.27;6.50;;;27.50;99.90;;;31.23;21.58;95885.86;619483;226;31974;-77
2022/03/28 11:08:38;;;;;;;7.03;5.47;;;26.20;99.90;;;29.46;22.78;95889.09;631608;217;31772;-78
2022/03/28 11:11:21;;;;;;;8.73;6.50;;;26.20;99.90;;;29.40;22.14;95875.88;647390;216;31617;-77
2022/03/28 11:14:09;;;;;;;7.95;5.78;;;25.10;99.90;;;32.45;22.19;95862.41;646933;216;31721;-77
2022/03/28 11:16:50;;;;;;;6.55;5.68;;;27.70;99.90;;;32.01;23.08;95850.54;645750;216;31588;-77
2022/03/28 11:19:33;;;;;;;7.47;5.90;;;27.40;99.90;;;30.34;22.39;95852.83;648557;212;31754;-77
2022/03/28 11:22:14;;;;;;;9.40;5.93;;;26.40;99.90;;;30.40;22.01;95851.24;647141;216;31565;-77
2022/03/28 11:24:58;;;;;;;6.77;5.50;;;26.10;99.90;;;28.90;22.54;95845.94;646369;212;31995;-78
2022/03/28 11:27:38;;;;;;;6.82;5.70;;;24.10;99.90;;;27.41;23.93;95843.58;646092;212;31945;-79
2022/03/28 11:30:23;;;;;;;8.68;6.12;;;23.50;99.90;;;28.88;22.73;95836.79;647562;216;42809;-77
2022/03/28 11:36:07;;;;;;;8.98;6.43;;;26.50;99.90;;;28.71;22.17;95828.77;647067;212;32108;-77
2022/03/28 11:38:50;;;;;;;10.10;6.68;;;24.00;99.90;;;28.81;22.53;95822.00;647051;212;42333;-77
2022/03/28 11:41:34;;;;;;;8.70;6.18;;;25.00;99.90;;;27.87;22.67;95824.65;633204;217;32525;-77
2022/03/28 11:44:14;;;;;;;6.80;5.50;;;24.30;99.90;;;29.32;22.04;95816.05;618963;222;31973;-76
2022/03/28 11:46:57;;;;;;;7.50;5.62;;;26.30;99.90;;;28.71;21.74;95809.95;646656;216;31715;-76
2022/03/28 11:49:37;;;;;;;6.40;5.62;;;24.70;99.90;;;31.97;20.41;95799.66;618776;226;31864;-76
2022/03/28 11:52:19;;;;;;;7.93;5.68;;;27.90;99.90;;;31.85;19.62;95800.56;647580;216;31566;-76
2022/03/28 11:55:01;;;;;;;9.50;6.00;;;28.40;1.40;;;30.84;19.94;95790.16;646431;216;31579;-77
2022/03/28 12:00:30;;;;;;;7.57;5.83;;;27.30;99.90;;;30.82;20.67;95777.34;619425;222;32120;-76
2022/03/28 12:03:12;;;;;;;7.20;5.90;;;26.60;99.90;;;32.25;20.35;95767.17;620383;222;32350;-76
2022/03/28 12:05:53;;;;;;;7.30;5.60;;;27.40;99.90;;;33.62;19.01;95767.95;645700;216;31858;-78
2022/03/28 12:08:35;;;;;;;9.45;5.47;;;29.40;99.90;;;32.39;19.17;95767.03;647248;216;31632;-76
2022/03/28 12:11:17;;;;;;;8.60;5.75;;;27.90;99.90;;;33.90;19.06;95760.78;647866;212;31683;-76
2022/03/28 12:13:59;;;;;;;9.35;6.10;;;28.90;99.90;;;30.12;20.26;95759.17;647081;216;31597;-76
2022/03/28 12:16:49;;;;;;;7.10;5.62;;;26.80;99.90;;;32.06;19.98;95755.14;646691;212;31762;-77
2022/03/28 12:19:33;;;;;;;8.48;5.10;;;27.00;99.90;;;32.28;18.65;95747.31;619042;226;31955;-76